North La Junta, Colorado
Current Conditions -  °F | °C
As of 8:53 AM on Monday 26 Jan 2015 (Local Time) from KLHX Reporting Station
Clear Clear  
Wind Chill: 38°   Ceiling: Unl
Heat Index: 43°   Visibility: 10mi
Dew Point: 29°   Wind: 9mph
Humidity: 58%   Direction: 260°W
Pressure: 30.27"   Gusts: NA
Location:  37.8368°N, 103.544°W
Report Text: KLHX 261553Z AUTO 26008KT 10SM CLR 06/M02 A3027 RMK AO2 SLP245 T00611017
Loading
Personal Weather Stations






























Interactive Weather Map New forecast layout! Learn more

10-Day Weather Forecast

Advertisements
Track Severe Weather on mobile